createdAt,value
2019-04-16T00:00:06.537Z,42.92
2019-04-16T00:05:02.421Z,43.85
2019-04-16T00:10:04.057Z,44.35
2019-04-16T00:14:59.431Z,44.25
2019-04-16T00:19:53.531Z,44.42
2019-04-16T00:24:48.292Z,44.50
2019-04-16T00:29:42.278Z,44.84
2019-04-16T00:34:36.438Z,44.95
2019-04-16T00:39:30.447Z,45.15
2019-04-16T00:44:24.641Z,45.62
2019-04-16T00:49:18.621Z,44.96
2019-04-16T00:54:12.633Z,45.67
2019-04-16T00:59:06.624Z,46.66
2019-04-16T01:04:00.618Z,47.81
2019-04-16T01:08:55.251Z,49.08
2019-04-16T01:13:49.406Z,49.47
2019-04-16T01:18:43.333Z,49.57
2019-04-16T01:23:37.301Z,50.60
2019-04-16T01:28:36.282Z,51.72
2019-04-16T01:33:48.722Z,52.54
2019-04-16T01:38:50.349Z,53.79
2019-04-16T01:43:44.327Z,53.63
2019-04-16T01:48:39.655Z,53.76
2019-04-16T01:53:33.808Z,53.64
2019-04-16T01:58:27.855Z,53.80
2019-04-16T02:03:21.890Z,54.26
2019-04-16T02:08:15.840Z,55.16
2019-04-16T02:13:14.566Z,54.55
2019-04-16T02:18:06.085Z,55.22
2019-04-16T02:23:00.047Z,55.95
2019-04-16T02:27:54.268Z,56.63
2019-04-16T02:32:49.895Z,56.92
2019-04-16T02:37:43.866Z,56.80
2019-04-16T02:42:38.124Z,57.62
2019-04-16T02:47:32.266Z,58.43
2019-04-16T02:52:37.010Z,58.97
2019-04-16T02:57:48.273Z,58.96
2019-04-16T03:02:44.244Z,59.27
2019-04-16T03:07:38.220Z,58.99
2019-04-16T03:12:32.382Z,59.12
2019-04-16T03:17:28.271Z,59.33
2019-04-16T03:22:22.248Z,59.70
2019-04-16T03:27:16.340Z,59.83
2019-04-16T03:32:14.295Z,59.57
2019-04-16T03:37:06.363Z,59.66
2019-04-16T03:42:00.366Z,60.03
2019-04-16T03:46:54.527Z,60.22
2019-04-16T03:51:48.489Z,60.95
2019-04-16T03:56:42.439Z,60.68
2019-04-16T04:01:36.428Z,61.13
2019-04-16T04:06:30.421Z,61.46
2019-04-16T04:11:24.386Z,62.23
2019-04-16T04:16:18.527Z,62.74
2019-04-16T04:21:12.670Z,63.00
2019-04-16T04:26:08.919Z,63.14
2019-04-16T04:31:02.680Z,62.95
2019-04-16T04:35:56.624Z,63.32
2019-04-16T04:40:51.541Z,63.05
2019-04-16T04:45:45.633Z,62.67
2019-04-16T04:50:39.616Z,62.65
2019-04-16T04:55:33.934Z,63.06
2019-04-16T05:00:27.906Z,62.66
2019-04-16T05:05:26.764Z,62.65
2019-04-16T05:10:20.726Z,62.78
2019-04-16T05:15:14.687Z,62.70
2019-04-16T05:20:08.845Z,62.43
2019-04-16T05:25:04.062Z,62.22
2019-04-16T05:29:58.017Z,61.47
2019-04-16T05:34:52.107Z,61.90
2019-04-16T05:39:46.175Z,61.71
2019-04-16T05:44:40.199Z,61.49
2019-04-16T05:49:34.182Z,61.44
2019-04-16T05:54:32.769Z,62.26
2019-04-16T05:59:26.745Z,62.33
2019-04-16T06:04:24.313Z,61.76
2019-04-16T06:09:16.583Z,61.86
2019-04-16T06:14:17.033Z,61.97
2019-04-16T06:19:11.580Z,61.47
2019-04-16T06:24:08.008Z,60.36
2019-04-16T06:29:22.081Z,59.22
2019-04-16T06:34:27.094Z,57.73
2019-04-16T06:39:22.966Z,54.20
2019-04-16T06:44:19.047Z,51.11
2019-04-16T06:49:24.070Z,48.24
2019-04-16T06:54:32.257Z,47.02
2019-04-16T06:59:29.851Z,45.65
2019-04-16T07:04:24.388Z,44.45
2019-04-16T07:09:23.395Z,43.34
2019-04-16T07:14:16.805Z,43.55
2019-04-16T07:19:11.656Z,42.34
2019-04-16T07:24:05.897Z,41.16
2019-04-16T07:29:04.811Z,41.00
2019-04-16T07:34:12.821Z,39.52
2019-04-16T07:39:28.857Z,39.33
2019-04-16T07:44:12.696Z,38.02
2019-04-16T07:49:26.377Z,37.35
2019-04-16T07:54:35.081Z,36.88
2019-04-16T07:59:31.988Z,36.83
2019-04-16T08:04:29.199Z,35.94
2019-04-16T08:09:23.257Z,36.28
2019-04-16T08:14:17.207Z,35.07
2019-04-16T08:19:12.236Z,34.55
2019-04-16T08:24:09.299Z,33.98
2019-04-16T08:29:03.457Z,33.04
2019-04-16T08:33:57.414Z,32.93
2019-04-16T08:38:51.388Z,32.96
2019-04-16T08:43:45.494Z,33.50
2019-04-16T08:48:39.708Z,32.31
2019-04-16T08:53:35.578Z,32.08
2019-04-16T08:58:29.703Z,33.31
2019-04-16T09:03:26.859Z,32.70
2019-04-16T09:08:35.332Z,30.40
2019-04-16T09:13:31.286Z,31.04
2019-04-16T09:18:30.159Z,31.18
2019-04-16T09:23:26.667Z,30.23
2019-04-16T09:28:25.950Z,30.03
2019-04-16T09:33:26.276Z,29.92
2019-04-16T09:38:22.209Z,29.05
2019-04-16T09:43:18.590Z,29.29
2019-04-16T09:48:12.706Z,28.99
2019-04-16T09:53:06.943Z,29.60
2019-04-16T09:58:05.866Z,29.61
2019-04-16T10:03:00.845Z,28.33
2019-04-16T10:07:57.000Z,28.02
2019-04-16T10:12:50.868Z,27.67
2019-04-16T10:17:44.833Z,28.06
2019-04-16T10:22:38.936Z,27.92
2019-04-16T10:27:37.543Z,27.17
2019-04-16T10:32:31.539Z,26.46
2019-04-16T10:37:25.638Z,25.00
2019-04-16T10:42:27.477Z,23.78
2019-04-16T10:47:23.541Z,23.43
2019-04-16T10:52:36.147Z,23.21
2019-04-16T10:57:50.384Z,21.38
2019-04-16T11:02:52.025Z,18.44
2019-04-16T11:07:50.902Z,16.62
2019-04-16T11:12:45.081Z,15.04
2019-04-16T11:17:39.296Z,13.88
2019-04-16T11:22:33.253Z,11.98
2019-04-16T11:27:27.484Z,11.63
2019-04-16T11:32:30.551Z,11.19
2019-04-16T11:37:24.519Z,10.61
2019-04-16T11:42:18.635Z,9.10
2019-04-16T11:47:12.858Z,9.33
2019-04-16T11:52:07.150Z,8.53
2019-04-16T11:57:01.099Z,8.40
2019-04-16T12:01:59.983Z,8.03
2019-04-16T12:07:11.043Z,7.92
2019-04-16T12:12:19.016Z,7.45
2019-04-16T12:17:15.143Z,8.07
2019-04-16T12:22:15.930Z,7.76
2019-04-16T12:27:28.632Z,7.28
2019-04-16T12:32:30.705Z,8.13
2019-04-16T12:37:43.629Z,8.06
2019-04-16T12:42:42.609Z,7.57
2019-04-16T12:47:41.634Z,7.37
2019-04-16T12:52:55.569Z,7.77
2019-04-16T12:58:00.903Z,9.55
2019-04-16T13:02:56.807Z,10.74
2019-04-16T13:07:55.441Z,9.43
2019-04-16T13:12:57.335Z,8.01
2019-04-16T13:17:59.246Z,8.28
2019-04-16T13:22:58.166Z,8.00
2019-04-16T13:27:52.662Z,7.90
2019-04-16T13:32:46.625Z,7.23
2019-04-16T13:37:40.691Z,8.08
2019-04-16T13:42:34.803Z,8.39
2019-04-16T13:47:28.886Z,9.42
2019-04-16T13:52:25.251Z,8.23
2019-04-16T13:57:23.398Z,9.68
2019-04-16T14:02:22.457Z,9.04
2019-04-16T14:07:16.581Z,10.43
2019-04-16T14:12:10.564Z,11.68
2019-04-16T14:17:09.694Z,10.66
2019-04-16T14:22:00.672Z,10.67
2019-04-16T14:26:54.826Z,10.38
2019-04-16T14:31:49.027Z,12.64
2019-04-16T14:36:43.691Z,12.87
2019-04-16T14:41:37.788Z,12.68
2019-04-16T14:46:31.912Z,14.08
2019-04-16T14:51:25.892Z,13.78
2019-04-16T14:56:21.785Z,15.12
2019-04-16T15:01:34.108Z,12.50
2019-04-16T15:06:29.976Z,11.54
2019-04-16T15:11:28.652Z,14.03
2019-04-16T15:16:27.393Z,13.98
2019-04-16T15:21:29.061Z,12.39
2019-04-16T15:26:34.293Z,13.21
2019-04-16T15:31:33.609Z,13.48
2019-04-16T15:36:32.312Z,14.95
2019-04-16T15:41:45.387Z,12.53
2019-04-16T15:46:57.982Z,11.30
2019-04-16T15:52:00.138Z,13.92
2019-04-16T15:56:56.188Z,14.62
2019-04-16T16:02:09.146Z,15.20
2019-04-16T16:07:07.928Z,19.07
2019-04-16T16:12:05.599Z,19.07
2019-04-16T16:16:59.581Z,18.89
2019-04-16T16:21:53.560Z,24.25
2019-04-16T16:26:47.681Z,31.33
2019-04-16T16:31:41.794Z,32.97
2019-04-16T16:36:36.830Z,32.96
2019-04-16T16:41:31.697Z,34.79
2019-04-16T16:46:30.651Z,36.82
2019-04-16T16:51:25.075Z,38.26
2019-04-16T16:56:24.279Z,42.46
2019-04-16T17:01:34.732Z,51.18
2019-04-16T17:06:30.552Z,57.56
2019-04-16T17:11:24.674Z,56.45
2019-04-16T17:16:18.761Z,54.13
2019-04-16T17:21:12.860Z,53.94
2019-04-16T17:26:06.832Z,51.42
2019-04-16T17:31:00.936Z,49.63
2019-04-16T17:35:55.331Z,48.62
2019-04-16T17:41:00.489Z,49.61
2019-04-16T17:45:56.574Z,50.12
2019-04-16T17:51:09.200Z,50.63
2019-04-16T17:56:17.755Z,51.46
2019-04-16T18:01:19.782Z,51.16
2019-04-16T18:06:18.332Z,51.02
2019-04-16T18:11:19.987Z,50.72
2019-04-16T18:16:21.829Z,50.62
2019-04-16T18:21:23.512Z,51.04
2019-04-16T18:26:37.577Z,50.99
2019-04-16T18:31:39.461Z,51.11
2019-04-16T18:36:38.407Z,51.90
2019-04-16T18:41:40.154Z,51.64
2019-04-16T18:46:41.825Z,52.72
2019-04-16T18:51:36.148Z,52.65
2019-04-16T18:56:30.246Z,53.74
2019-04-16T19:01:29.690Z,54.95
2019-04-16T19:06:22.335Z,57.26
2019-04-16T19:11:20.236Z,57.70
2019-04-16T19:16:12.972Z,58.38
2019-04-16T19:21:07.191Z,59.15
2019-04-16T19:26:01.415Z,59.68
2019-04-16T19:30:55.434Z,60.52
2019-04-16T19:35:51.957Z,60.20
2019-04-16T19:40:47.718Z,61.21
2019-04-16T19:45:43.671Z,61.74
2019-04-16T19:50:37.890Z,60.66
2019-04-16T19:55:32.075Z,61.38
2019-04-16T20:00:26.397Z,61.81
2019-04-16T20:05:20.774Z,62.92
2019-04-16T20:10:15.127Z,63.68
2019-04-16T20:15:09.856Z,63.86
2019-04-16T20:20:04.874Z,64.35
2019-04-16T20:24:59.274Z,64.72
2019-04-16T20:29:53.579Z,64.26
2019-04-16T20:34:47.709Z,64.79
2019-04-16T20:39:41.783Z,65.26
2019-04-16T20:44:35.875Z,65.87
2019-04-16T20:49:30.019Z,66.24
2019-04-16T20:54:24.113Z,66.00
2019-04-16T20:59:18.214Z,66.04
2019-04-16T21:04:12.377Z,66.38
2019-04-16T21:09:06.889Z,67.20
2019-04-16T21:14:01.222Z,67.83
2019-04-16T21:18:55.521Z,68.16
2019-04-16T21:23:49.782Z,68.57
2019-04-16T21:28:45.659Z,68.89
2019-04-16T21:33:44.344Z,69.24
2019-04-16T21:38:46.154Z,69.35
2019-04-16T21:43:40.470Z,69.10
2019-04-16T21:48:34.512Z,69.24
2019-04-16T21:53:28.844Z,69.20
2019-04-16T21:58:23.104Z,69.54
2019-04-16T22:03:27.943Z,69.58
2019-04-16T22:08:22.147Z,69.71
2019-04-16T22:13:19.166Z,69.81
2019-04-16T22:18:11.979Z,69.44
2019-04-16T22:23:06.031Z,70.04
2019-04-16T22:28:00.035Z,70.34
2019-04-16T22:32:54.041Z,70.20
2019-04-16T22:37:48.016Z,70.30
2019-04-16T22:42:46.842Z,70.17
2019-04-16T22:47:42.795Z,70.41
2019-04-16T22:52:36.773Z,70.43
2019-04-16T22:57:31.189Z,70.44
2019-04-16T23:02:27.827Z,70.30
2019-04-16T23:07:21.823Z,70.38
2019-04-16T23:12:15.939Z,70.42
2019-04-16T23:17:13.142Z,70.31
2019-04-16T23:22:06.230Z,70.03
2019-04-16T23:27:04.259Z,69.64
2019-04-16T23:31:56.308Z,69.66
2019-04-16T23:36:50.389Z,69.21
2019-04-16T23:41:47.957Z,69.09
2019-04-16T23:46:44.929Z,68.87
2019-04-16T23:51:40.855Z,68.02
2019-04-16T23:56:39.827Z,67.43
